sensor_id;sensor_type;location;lat;lon;timestamp;P1;durP1;ratioP1;P2;durP2;ratioP2
58990;SDS011;44781;53.444;14.476;2023-11-19T00:01:35;13.70;;;9.00;;
58990;SDS011;44781;53.444;14.476;2023-11-19T00:04:07;14.60;;;8.20;;
58990;SDS011;44781;53.444;14.476;2023-11-19T00:06:35;15.70;;;8.50;;
58990;SDS011;44781;53.444;14.476;2023-11-19T00:09:04;13.00;;;7.90;;
58990;SDS011;44781;53.444;14.476;2023-11-19T00:11:32;13.50;;;8.20;;
58990;SDS011;44781;53.444;14.476;2023-11-19T00:14:00;13.80;;;7.50;;
58990;SDS011;44781;53.444;14.476;2023-11-19T00:16:27;14.10;;;8.50;;
58990;SDS011;44781;53.444;14.476;2023-11-19T00:18:54;14.00;;;7.90;;
58990;SDS011;44781;53.444;14.476;2023-11-19T00:21:22;14.50;;;8.60;;
58990;SDS011;44781;53.444;14.476;2023-11-19T00:23:49;13.90;;;8.40;;
58990;SDS011;44781;53.444;14.476;2023-11-19T00:26:19;13.80;;;7.90;;
58990;SDS011;44781;53.444;14.476;2023-11-19T00:28:46;14.10;;;8.60;;
58990;SDS011;44781;53.444;14.476;2023-11-19T00:31:14;14.10;;;9.20;;
58990;SDS011;44781;53.444;14.476;2023-11-19T00:33:42;13.70;;;8.90;;
58990;SDS011;44781;53.444;14.476;2023-11-19T00:36:09;14.90;;;8.80;;
58990;SDS011;44781;53.444;14.476;2023-11-19T00:38:36;13.60;;;7.70;;
58990;SDS011;44781;53.444;14.476;2023-11-19T00:41:04;12.80;;;8.50;;
58990;SDS011;44781;53.444;14.476;2023-11-19T00:43:33;12.30;;;8.20;;
58990;SDS011;44781;53.444;14.476;2023-11-19T00:46:06;12.60;;;8.50;;
58990;SDS011;44781;53.444;14.476;2023-11-19T00:48:34;13.50;;;9.30;;
58990;SDS011;44781;53.444;14.476;2023-11-19T00:51:01;14.70;;;9.20;;
58990;SDS011;44781;53.444;14.476;2023-11-19T00:53:30;14.20;;;8.60;;
58990;SDS011;44781;53.444;14.476;2023-11-19T00:56:01;13.10;;;7.90;;
58990;SDS011;44781;53.444;14.476;2023-11-19T00:58:36;15.00;;;8.90;;
58990;SDS011;44781;53.444;14.476;2023-11-19T01:01:03;13.00;;;7.70;;
58990;SDS011;44781;53.444;14.476;2023-11-19T01:03:31;14.80;;;8.90;;
58990;SDS011;44781;53.444;14.476;2023-11-19T01:05:59;12.40;;;8.30;;
58990;SDS011;44781;53.444;14.476;2023-11-19T01:08:30;12.70;;;8.10;;
58990;SDS011;44781;53.444;14.476;2023-11-19T01:11:00;13.00;;;8.00;;
58990;SDS011;44781;53.444;14.476;2023-11-19T01:13:27;15.20;;;8.80;;
58990;SDS011;44781;53.444;14.476;2023-11-19T01:15:56;14.00;;;7.90;;
58990;SDS011;44781;53.444;14.476;2023-11-19T01:18:24;15.10;;;8.70;;
58990;SDS011;44781;53.444;14.476;2023-11-19T01:20:51;12.00;;;7.30;;
58990;SDS011;44781;53.444;14.476;2023-11-19T01:23:18;11.70;;;7.40;;
58990;SDS011;44781;53.444;14.476;2023-11-19T01:25:48;13.00;;;8.40;;
58990;SDS011;44781;53.444;14.476;2023-11-19T01:28:15;12.60;;;8.20;;
58990;SDS011;44781;53.444;14.476;2023-11-19T01:30:43;13.60;;;7.70;;
58990;SDS011;44781;53.444;14.476;2023-11-19T01:33:10;13.10;;;7.80;;
58990;SDS011;44781;53.444;14.476;2023-11-19T01:35:37;13.10;;;8.70;;
58990;SDS011;44781;53.444;14.476;2023-11-19T01:38:04;13.90;;;9.00;;
58990;SDS011;44781;53.444;14.476;2023-11-19T01:40:31;14.10;;;8.10;;
58990;SDS011;44781;53.444;14.476;2023-11-19T01:42:58;14.60;;;8.80;;
58990;SDS011;44781;53.444;14.476;2023-11-19T01:45:29;15.10;;;9.20;;
58990;SDS011;44781;53.444;14.476;2023-11-19T01:50:25;15.80;;;9.40;;
58990;SDS011;44781;53.444;14.476;2023-11-19T01:52:54;14.50;;;8.90;;
58990;SDS011;44781;53.444;14.476;2023-11-19T01:55:24;14.20;;;8.60;;
58990;SDS011;44781;53.444;14.476;2023-11-19T01:57:55;14.20;;;9.20;;
58990;SDS011;44781;53.444;14.476;2023-11-19T02:00:27;15.70;;;10.10;;
58990;SDS011;44781;53.444;14.476;2023-11-19T02:02:54;15.90;;;10.00;;
58990;SDS011;44781;53.444;14.476;2023-11-19T02:05:21;15.90;;;9.90;;
58990;SDS011;44781;53.444;14.476;2023-11-19T02:07:49;15.10;;;10.30;;
58990;SDS011;44781;53.444;14.476;2023-11-19T02:10:18;15.10;;;9.50;;
58990;SDS011;44781;53.444;14.476;2023-11-19T02:12:45;15.50;;;9.70;;
58990;SDS011;44781;53.444;14.476;2023-11-19T02:15:13;15.50;;;10.90;;
58990;SDS011;44781;53.444;14.476;2023-11-19T02:17:40;14.50;;;9.30;;
58990;SDS011;44781;53.444;14.476;2023-11-19T02:20:07;14.80;;;9.80;;
58990;SDS011;44781;53.444;14.476;2023-11-19T02:22:41;14.50;;;10.10;;
58990;SDS011;44781;53.444;14.476;2023-11-19T02:25:10;14.60;;;10.00;;
58990;SDS011;44781;53.444;14.476;2023-11-19T02:27:58;16.30;;;10.00;;
58990;SDS011;44781;53.444;14.476;2023-11-19T02:30:27;15.70;;;10.10;;
58990;SDS011;44781;53.444;14.476;2023-11-19T02:32:55;14.70;;;9.60;;
58990;SDS011;44781;53.444;14.476;2023-11-19T02:35:31;14.50;;;9.60;;
58990;SDS011;44781;53.444;14.476;2023-11-19T02:38:00;13.60;;;9.60;;
58990;SDS011;44781;53.444;14.476;2023-11-19T02:40:27;14.60;;;9.80;;
58990;SDS011;44781;53.444;14.476;2023-11-19T02:42:54;15.50;;;10.40;;
58990;SDS011;44781;53.444;14.476;2023-11-19T02:45:22;16.20;;;10.20;;
58990;SDS011;44781;53.444;14.476;2023-11-19T02:47:51;15.30;;;9.90;;
58990;SDS011;44781;53.444;14.476;2023-11-19T02:50:19;16.20;;;10.20;;
58990;SDS011;44781;53.444;14.476;2023-11-19T02:52:55;15.70;;;10.10;;
58990;SDS011;44781;53.444;14.476;2023-11-19T02:55:23;14.10;;;9.70;;
58990;SDS011;44781;53.444;14.476;2023-11-19T02:57:50;14.70;;;10.00;;
58990;SDS011;44781;53.444;14.476;2023-11-19T03:00:20;16.00;;;10.40;;
58990;SDS011;44781;53.444;14.476;2023-11-19T03:02:58;14.40;;;10.60;;
58990;SDS011;44781;53.444;14.476;2023-11-19T03:05:26;15.60;;;10.30;;
58990;SDS011;44781;53.444;14.476;2023-11-19T03:07:56;15.40;;;10.40;;
58990;SDS011;44781;53.444;14.476;2023-11-19T03:10:24;16.10;;;10.30;;
58990;SDS011;44781;53.444;14.476;2023-11-19T03:12:50;15.30;;;10.10;;
58990;SDS011;44781;53.444;14.476;2023-11-19T03:15:18;15.80;;;10.40;;
58990;SDS011;44781;53.444;14.476;2023-11-19T03:17:45;15.80;;;10.30;;
58990;SDS011;44781;53.444;14.476;2023-11-19T03:20:12;16.70;;;10.40;;
58990;SDS011;44781;53.444;14.476;2023-11-19T03:22:43;14.70;;;10.00;;
58990;SDS011;44781;53.444;14.476;2023-11-19T03:25:10;15.50;;;10.30;;
58990;SDS011;44781;53.444;14.476;2023-11-19T03:27:37;14.30;;;9.60;;
58990;SDS011;44781;53.444;14.476;2023-11-19T03:30:05;19.50;;;11.60;;
58990;SDS011;44781;53.444;14.476;2023-11-19T03:32:33;18.20;;;11.80;;
58990;SDS011;44781;53.444;14.476;2023-11-19T03:35:02;23.60;;;13.00;;
58990;SDS011;44781;53.444;14.476;2023-11-19T03:37:31;22.20;;;12.90;;
58990;SDS011;44781;53.444;14.476;2023-11-19T03:39:59;18.60;;;11.00;;
58990;SDS011;44781;53.444;14.476;2023-11-19T03:42:26;19.30;;;11.50;;
58990;SDS011;44781;53.444;14.476;2023-11-19T03:44:53;20.00;;;11.70;;
58990;SDS011;44781;53.444;14.476;2023-11-19T03:47:21;17.80;;;10.80;;
58990;SDS011;44781;53.444;14.476;2023-11-19T03:49:49;17.10;;;10.90;;
58990;SDS011;44781;53.444;14.476;2023-11-19T03:52:16;21.70;;;12.40;;
58990;SDS011;44781;53.444;14.476;2023-11-19T03:54:44;24.90;;;12.80;;
58990;SDS011;44781;53.444;14.476;2023-11-19T03:57:12;19.80;;;12.00;;
58990;SDS011;44781;53.444;14.476;2023-11-19T03:59:39;21.20;;;12.70;;
58990;SDS011;44781;53.444;14.476;2023-11-19T04:02:07;19.30;;;11.70;;
58990;SDS011;44781;53.444;14.476;2023-11-19T04:04:33;22.60;;;13.90;;
58990;SDS011;44781;53.444;14.476;2023-11-19T04:07:01;19.90;;;12.10;;
58990;SDS011;44781;53.444;14.476;2023-11-19T04:09:29;23.00;;;13.50;;
58990;SDS011;44781;53.444;14.476;2023-11-19T04:11:57;19.00;;;12.50;;
58990;SDS011;44781;53.444;14.476;2023-11-19T04:14:24;19.50;;;11.90;;
58990;SDS011;44781;53.444;14.476;2023-11-19T04:16:53;18.30;;;12.40;;
58990;SDS011;44781;53.444;14.476;2023-11-19T04:19:20;17.50;;;12.30;;
58990;SDS011;44781;53.444;14.476;2023-11-19T04:21:47;16.50;;;11.80;;
58990;SDS011;44781;53.444;14.476;2023-11-19T04:24:14;16.90;;;11.60;;
58990;SDS011;44781;53.444;14.476;2023-11-19T04:26:42;18.00;;;11.30;;
58990;SDS011;44781;53.444;14.476;2023-11-19T04:29:11;18.40;;;12.10;;
58990;SDS011;44781;53.444;14.476;2023-11-19T04:31:39;17.70;;;11.00;;
58990;SDS011;44781;53.444;14.476;2023-11-19T04:34:06;18.00;;;11.60;;
58990;SDS011;44781;53.444;14.476;2023-11-19T04:36:33;18.30;;;11.40;;
58990;SDS011;44781;53.444;14.476;2023-11-19T04:39:01;18.80;;;11.90;;
58990;SDS011;44781;53.444;14.476;2023-11-19T04:41:28;18.20;;;12.10;;
58990;SDS011;44781;53.444;14.476;2023-11-19T04:43:55;14.90;;;10.10;;
58990;SDS011;44781;53.444;14.476;2023-11-19T04:46:22;15.70;;;10.80;;
58990;SDS011;44781;53.444;14.476;2023-11-19T04:48:50;18.60;;;11.60;;
58990;SDS011;44781;53.444;14.476;2023-11-19T04:51:17;16.10;;;10.50;;
58990;SDS011;44781;53.444;14.476;2023-11-19T04:53:44;16.40;;;10.50;;
58990;SDS011;44781;53.444;14.476;2023-11-19T04:56:11;16.30;;;10.90;;
58990;SDS011;44781;53.444;14.476;2023-11-19T04:58:38;16.10;;;11.30;;
58990;SDS011;44781;53.444;14.476;2023-11-19T05:01:05;17.80;;;11.00;;
58990;SDS011;44781;53.444;14.476;2023-11-19T05:03:32;16.50;;;10.40;;
58990;SDS011;44781;53.444;14.476;2023-11-19T05:05:59;17.90;;;11.50;;
58990;SDS011;44781;53.444;14.476;2023-11-19T05:08:26;17.20;;;11.00;;
58990;SDS011;44781;53.444;14.476;2023-11-19T05:10:53;18.20;;;11.60;;
58990;SDS011;44781;53.444;14.476;2023-11-19T05:13:21;17.10;;;11.20;;
58990;SDS011;44781;53.444;14.476;2023-11-19T05:15:48;17.30;;;11.90;;
58990;SDS011;44781;53.444;14.476;2023-11-19T05:18:15;15.90;;;10.50;;
58990;SDS011;44781;53.444;14.476;2023-11-19T05:20:42;15.50;;;10.70;;
58990;SDS011;44781;53.444;14.476;2023-11-19T05:23:09;18.70;;;11.40;;
58990;SDS011;44781;53.444;14.476;2023-11-19T05:25:36;17.50;;;10.80;;
58990;SDS011;44781;53.444;14.476;2023-11-19T05:28:03;15.90;;;10.90;;
58990;SDS011;44781;53.444;14.476;2023-11-19T05:30:30;15.30;;;10.20;;
58990;SDS011;44781;53.444;14.476;2023-11-19T05:32:57;15.60;;;10.60;;
58990;SDS011;44781;53.444;14.476;2023-11-19T05:35:24;17.30;;;11.40;;
58990;SDS011;44781;53.444;14.476;2023-11-19T05:37:51;18.00;;;11.60;;
58990;SDS011;44781;53.444;14.476;2023-11-19T05:40:18;16.20;;;10.70;;
58990;SDS011;44781;53.444;14.476;2023-11-19T05:42:47;17.40;;;12.00;;
58990;SDS011;44781;53.444;14.476;2023-11-19T05:45:14;18.30;;;12.10;;
58990;SDS011;44781;53.444;14.476;2023-11-19T05:47:41;20.60;;;10.60;;
58990;SDS011;44781;53.444;14.476;2023-11-19T05:50:08;17.30;;;12.00;;
58990;SDS011;44781;53.444;14.476;2023-11-19T05:52:36;17.70;;;11.90;;
58990;SDS011;44781;53.444;14.476;2023-11-19T05:55:04;16.20;;;10.70;;
58990;SDS011;44781;53.444;14.476;2023-11-19T05:57:38;17.20;;;11.40;;
58990;SDS011;44781;53.444;14.476;2023-11-19T06:00:07;17.40;;;11.50;;
58990;SDS011;44781;53.444;14.476;2023-11-19T06:02:59;19.80;;;13.70;;
58990;SDS011;44781;53.444;14.476;2023-11-19T06:05:29;20.00;;;12.80;;
58990;SDS011;44781;53.444;14.476;2023-11-19T06:07:56;20.10;;;12.70;;
58990;SDS011;44781;53.444;14.476;2023-11-19T06:10:24;18.90;;;11.70;;
58990;SDS011;44781;53.444;14.476;2023-11-19T06:13:00;18.80;;;11.80;;
58990;SDS011;44781;53.444;14.476;2023-11-19T06:15:31;16.60;;;11.40;;
58990;SDS011;44781;53.444;14.476;2023-11-19T06:17:59;20.10;;;13.00;;
58990;SDS011;44781;53.444;14.476;2023-11-19T06:20:28;18.70;;;12.50;;
58990;SDS011;44781;53.444;14.476;2023-11-19T06:22:56;21.30;;;13.80;;
58990;SDS011;44781;53.444;14.476;2023-11-19T06:25:23;18.70;;;11.90;;
58990;SDS011;44781;53.444;14.476;2023-11-19T06:27:50;18.10;;;12.20;;
58990;SDS011;44781;53.444;14.476;2023-11-19T06:30:18;21.20;;;13.10;;
58990;SDS011;44781;53.444;14.476;2023-11-19T06:32:47;26.70;;;14.70;;
58990;SDS011;44781;53.444;14.476;2023-11-19T06:35:14;18.60;;;11.80;;
58990;SDS011;44781;53.444;14.476;2023-11-19T06:37:41;19.60;;;12.80;;
58990;SDS011;44781;53.444;14.476;2023-11-19T06:40:09;16.70;;;10.90;;
58990;SDS011;44781;53.444;14.476;2023-11-19T06:42:36;21.50;;;12.70;;
58990;SDS011;44781;53.444;14.476;2023-11-19T06:45:03;25.00;;;14.50;;
58990;SDS011;44781;53.444;14.476;2023-11-19T06:47:30;19.30;;;12.10;;
58990;SDS011;44781;53.444;14.476;2023-11-19T06:49:57;18.90;;;11.30;;
58990;SDS011;44781;53.444;14.476;2023-11-19T06:52:26;19.90;;;13.30;;
58990;SDS011;44781;53.444;14.476;2023-11-19T06:54:53;20.40;;;12.10;;
58990;SDS011;44781;53.444;14.476;2023-11-19T06:57:20;17.70;;;10.70;;
58990;SDS011;44781;53.444;14.476;2023-11-19T06:59:47;17.20;;;11.00;;
58990;SDS011;44781;53.444;14.476;2023-11-19T07:02:14;18.20;;;11.10;;
58990;SDS011;44781;53.444;14.476;2023-11-19T07:04:41;19.00;;;11.70;;
58990;SDS011;44781;53.444;14.476;2023-11-19T07:07:08;15.00;;;9.30;;
58990;SDS011;44781;53.444;14.476;2023-11-19T07:09:36;17.50;;;10.60;;
58990;SDS011;44781;53.444;14.476;2023-11-19T07:12:03;21.90;;;12.20;;
58990;SDS011;44781;53.444;14.476;2023-11-19T07:14:31;16.40;;;10.10;;
58990;SDS011;44781;53.444;14.476;2023-11-19T07:16:59;17.10;;;10.60;;
58990;SDS011;44781;53.444;14.476;2023-11-19T07:19:30;20.60;;;12.80;;
58990;SDS011;44781;53.444;14.476;2023-11-19T07:21:57;19.80;;;11.80;;
58990;SDS011;44781;53.444;14.476;2023-11-19T07:24:24;12.60;;;8.00;;
58990;SDS011;44781;53.444;14.476;2023-11-19T07:26:54;13.10;;;7.90;;
58990;SDS011;44781;53.444;14.476;2023-11-19T07:29:21;12.60;;;8.30;;
58990;SDS011;44781;53.444;14.476;2023-11-19T07:31:48;13.80;;;8.90;;
58990;SDS011;44781;53.444;14.476;2023-11-19T07:34:16;17.20;;;11.10;;
58990;SDS011;44781;53.444;14.476;2023-11-19T07:36:43;14.30;;;8.60;;
58990;SDS011;44781;53.444;14.476;2023-11-19T07:39:10;18.00;;;10.50;;
58990;SDS011;44781;53.444;14.476;2023-11-19T07:41:37;16.90;;;11.00;;
58990;SDS011;44781;53.444;14.476;2023-11-19T07:44:06;16.20;;;10.20;;
58990;SDS011;44781;53.444;14.476;2023-11-19T07:46:33;15.40;;;9.10;;
58990;SDS011;44781;53.444;14.476;2023-11-19T07:49:00;15.10;;;9.00;;
58990;SDS011;44781;53.444;14.476;2023-11-19T07:51:29;15.70;;;8.20;;
58990;SDS011;44781;53.444;14.476;2023-11-19T07:53:59;17.00;;;9.40;;
58990;SDS011;44781;53.444;14.476;2023-11-19T07:56:26;21.20;;;11.20;;
58990;SDS011;44781;53.444;14.476;2023-11-19T07:58:53;13.90;;;8.60;;
58990;SDS011;44781;53.444;14.476;2023-11-19T08:01:21;15.70;;;8.30;;
58990;SDS011;44781;53.444;14.476;2023-11-19T08:03:50;15.90;;;9.20;;
58990;SDS011;44781;53.444;14.476;2023-11-19T08:06:17;16.10;;;9.20;;
58990;SDS011;44781;53.444;14.476;2023-11-19T08:08:44;13.20;;;7.20;;
58990;SDS011;44781;53.444;14.476;2023-11-19T08:11:11;12.30;;;7.10;;
58990;SDS011;44781;53.444;14.476;2023-11-19T08:13:38;15.70;;;8.50;;
58990;SDS011;44781;53.444;14.476;2023-11-19T08:16:05;14.40;;;8.30;;
58990;SDS011;44781;53.444;14.476;2023-11-19T08:18:33;13.00;;;7.70;;
58990;SDS011;44781;53.444;14.476;2023-11-19T08:21:00;16.20;;;9.30;;
58990;SDS011;44781;53.444;14.476;2023-11-19T08:23:27;14.30;;;8.00;;
58990;SDS011;44781;53.444;14.476;2023-11-19T08:25:55;13.10;;;7.20;;
58990;SDS011;44781;53.444;14.476;2023-11-19T08:28:22;12.90;;;7.40;;
58990;SDS011;44781;53.444;14.476;2023-11-19T08:30:50;13.10;;;7.80;;
58990;SDS011;44781;53.444;14.476;2023-11-19T08:33:17;9.90;;;5.70;;
58990;SDS011;44781;53.444;14.476;2023-11-19T08:35:44;12.30;;;7.30;;
58990;SDS011;44781;53.444;14.476;2023-11-19T08:41:32;12.20;;;6.30;;
58990;SDS011;44781;53.444;14.476;2023-11-19T08:44:00;11.00;;;6.90;;
58990;SDS011;44781;53.444;14.476;2023-11-19T08:46:31;9.40;;;5.70;;
58990;SDS011;44781;53.444;14.476;2023-11-19T08:48:58;10.00;;;5.80;;
58990;SDS011;44781;53.444;14.476;2023-11-19T08:51:27;8.80;;;5.30;;
58990;SDS011;44781;53.444;14.476;2023-11-19T08:53:54;10.20;;;5.40;;
58990;SDS011;44781;53.444;14.476;2023-11-19T08:56:22;11.90;;;6.30;;
58990;SDS011;44781;53.444;14.476;2023-11-19T08:58:49;11.10;;;6.50;;
58990;SDS011;44781;53.444;14.476;2023-11-19T09:01:16;8.20;;;4.80;;
58990;SDS011;44781;53.444;14.476;2023-11-19T09:03:43;10.70;;;5.80;;
58990;SDS011;44781;53.444;14.476;2023-11-19T09:06:14;9.50;;;5.90;;
58990;SDS011;44781;53.444;14.476;2023-11-19T09:08:42;8.80;;;5.50;;
58990;SDS011;44781;53.444;14.476;2023-11-19T09:11:12;10.80;;;6.10;;
58990;SDS011;44781;53.444;14.476;2023-11-19T09:13:41;9.80;;;5.40;;
58990;SDS011;44781;53.444;14.476;2023-11-19T09:16:11;9.40;;;5.50;;
58990;SDS011;44781;53.444;14.476;2023-11-19T09:18:39;9.40;;;5.30;;
58990;SDS011;44781;53.444;14.476;2023-11-19T09:21:07;9.20;;;5.00;;
58990;SDS011;44781;53.444;14.476;2023-11-19T09:23:37;8.30;;;5.30;;
58990;SDS011;44781;53.444;14.476;2023-11-19T09:26:06;9.20;;;5.40;;
58990;SDS011;44781;53.444;14.476;2023-11-19T09:28:36;9.60;;;5.50;;
58990;SDS011;44781;53.444;14.476;2023-11-19T09:31:12;8.80;;;5.40;;
58990;SDS011;44781;53.444;14.476;2023-11-19T09:33:44;10.00;;;5.30;;
58990;SDS011;44781;53.444;14.476;2023-11-19T09:36:12;9.70;;;5.80;;
58990;SDS011;44781;53.444;14.476;2023-11-19T09:39:00;10.00;;;5.70;;
58990;SDS011;44781;53.444;14.476;2023-11-19T09:41:29;8.60;;;5.10;;
58990;SDS011;44781;53.444;14.476;2023-11-19T09:43:58;9.30;;;5.30;;
58990;SDS011;44781;53.444;14.476;2023-11-19T09:46:26;11.50;;;6.00;;
58990;SDS011;44781;53.444;14.476;2023-11-19T09:48:54;7.90;;;5.00;;
58990;SDS011;44781;53.444;14.476;2023-11-19T09:51:26;9.00;;;5.40;;
58990;SDS011;44781;53.444;14.476;2023-11-19T09:53:53;9.70;;;5.20;;
58990;SDS011;44781;53.444;14.476;2023-11-19T09:56:20;9.20;;;5.40;;
58990;SDS011;44781;53.444;14.476;2023-11-19T09:58:48;7.60;;;4.70;;
58990;SDS011;44781;53.444;14.476;2023-11-19T10:01:16;9.20;;;5.20;;
58990;SDS011;44781;53.444;14.476;2023-11-19T10:03:43;9.40;;;5.30;;
58990;SDS011;44781;53.444;14.476;2023-11-19T10:06:14;7.10;;;4.50;;
58990;SDS011;44781;53.444;14.476;2023-11-19T10:08:42;8.50;;;5.20;;
58990;SDS011;44781;53.444;14.476;2023-11-19T10:11:12;11.30;;;6.10;;
58990;SDS011;44781;53.444;14.476;2023-11-19T10:13:39;9.40;;;5.50;;
58990;SDS011;44781;53.444;14.476;2023-11-19T10:16:09;8.80;;;5.50;;
58990;SDS011;44781;53.444;14.476;2023-11-19T10:18:45;9.70;;;5.20;;
58990;SDS011;44781;53.444;14.476;2023-11-19T10:21:13;9.20;;;5.30;;
58990;SDS011;44781;53.444;14.476;2023-11-19T10:24:02;8.40;;;5.30;;
58990;SDS011;44781;53.444;14.476;2023-11-19T10:26:29;8.60;;;5.30;;
58990;SDS011;44781;53.444;14.476;2023-11-19T10:28:57;8.30;;;5.30;;
58990;SDS011;44781;53.444;14.476;2023-11-19T10:31:24;9.90;;;5.70;;
58990;SDS011;44781;53.444;14.476;2023-11-19T10:33:52;11.10;;;5.70;;
58990;SDS011;44781;53.444;14.476;2023-11-19T10:36:19;10.00;;;5.60;;
58990;SDS011;44781;53.444;14.476;2023-11-19T10:38:56;11.50;;;6.00;;
58990;SDS011;44781;53.444;14.476;2023-11-19T10:41:27;12.50;;;7.40;;
58990;SDS011;44781;53.444;14.476;2023-11-19T10:46:22;11.50;;;7.30;;
58990;SDS011;44781;53.444;14.476;2023-11-19T10:48:50;12.20;;;7.50;;
58990;SDS011;44781;53.444;14.476;2023-11-19T10:51:18;11.70;;;7.10;;
58990;SDS011;44781;53.444;14.476;2023-11-19T10:53:50;10.80;;;6.40;;
58990;SDS011;44781;53.444;14.476;2023-11-19T10:56:23;12.10;;;7.00;;
58990;SDS011;44781;53.444;14.476;2023-11-19T10:58:55;11.70;;;6.90;;
58990;SDS011;44781;53.444;14.476;2023-11-19T11:03:57;10.50;;;6.70;;
58990;SDS011;44781;53.444;14.476;2023-11-19T11:06:27;10.80;;;7.30;;
58990;SDS011;44781;53.444;14.476;2023-11-19T11:08:55;14.70;;;8.90;;
58990;SDS011;44781;53.444;14.476;2023-11-19T11:11:23;16.80;;;10.10;;
58990;SDS011;44781;53.444;14.476;2023-11-19T11:13:51;13.80;;;8.20;;
58990;SDS011;44781;53.444;14.476;2023-11-19T11:16:19;10.70;;;6.30;;
58990;SDS011;44781;53.444;14.476;2023-11-19T11:18:49;10.40;;;6.80;;
58990;SDS011;44781;53.444;14.476;2023-11-19T11:21:17;12.20;;;6.70;;
58990;SDS011;44781;53.444;14.476;2023-11-19T11:23:56;9.50;;;6.10;;
58990;SDS011;44781;53.444;14.476;2023-11-19T11:29:31;17.20;;;11.40;;
58990;SDS011;44781;53.444;14.476;2023-11-19T11:32:14;19.50;;;12.20;;
58990;SDS011;44781;53.444;14.476;2023-11-19T11:37:49;22.30;;;15.30;;
58990;SDS011;44781;53.444;14.476;2023-11-19T11:40:23;18.80;;;12.20;;
58990;SDS011;44781;53.444;14.476;2023-11-19T11:42:50;15.90;;;11.10;;
58990;SDS011;44781;53.444;14.476;2023-11-19T11:45:34;18.30;;;12.50;;
58990;SDS011;44781;53.444;14.476;2023-11-19T11:48:13;23.80;;;14.20;;
58990;SDS011;44781;53.444;14.476;2023-11-19T11:50:51;21.40;;;13.50;;
58990;SDS011;44781;53.444;14.476;2023-11-19T11:53:23;15.70;;;10.30;;
58990;SDS011;44781;53.444;14.476;2023-11-19T11:55:53;14.60;;;9.80;;
58990;SDS011;44781;53.444;14.476;2023-11-19T11:58:26;10.30;;;8.00;;
58990;SDS011;44781;53.444;14.476;2023-11-19T12:01:01;9.90;;;6.80;;
58990;SDS011;44781;53.444;14.476;2023-11-19T12:03:29;9.50;;;6.90;;
58990;SDS011;44781;53.444;14.476;2023-11-19T12:06:01;9.60;;;7.00;;
58990;SDS011;44781;53.444;14.476;2023-11-19T12:08:30;10.30;;;6.80;;
58990;SDS011;44781;53.444;14.476;2023-11-19T12:11:00;11.10;;;7.50;;
58990;SDS011;44781;53.444;14.476;2023-11-19T12:13:46;10.30;;;7.50;;
58990;SDS011;44781;53.444;14.476;2023-11-19T12:16:28;10.50;;;7.90;;
58990;SDS011;44781;53.444;14.476;2023-11-19T12:18:57;10.80;;;7.90;;
58990;SDS011;44781;53.444;14.476;2023-11-19T12:21:32;13.50;;;8.40;;
58990;SDS011;44781;53.444;14.476;2023-11-19T12:24:02;10.60;;;7.30;;
58990;SDS011;44781;53.444;14.476;2023-11-19T12:26:34;10.40;;;7.50;;
58990;SDS011;44781;53.444;14.476;2023-11-19T12:29:07;12.30;;;7.60;;
58990;SDS011;44781;53.444;14.476;2023-11-19T12:31:35;11.80;;;7.80;;
58990;SDS011;44781;53.444;14.476;2023-11-19T12:34:06;10.90;;;6.70;;
58990;SDS011;44781;53.444;14.476;2023-11-19T12:36:38;10.10;;;6.70;;
58990;SDS011;44781;53.444;14.476;2023-11-19T12:39:06;10.40;;;7.30;;
58990;SDS011;44781;53.444;14.476;2023-11-19T12:41:40;9.90;;;6.90;;
58990;SDS011;44781;53.444;14.476;2023-11-19T12:44:15;10.50;;;7.10;;
58990;SDS011;44781;53.444;14.476;2023-11-19T12:46:43;11.90;;;7.70;;
58990;SDS011;44781;53.444;14.476;2023-11-19T12:49:10;10.30;;;7.60;;
58990;SDS011;44781;53.444;14.476;2023-11-19T12:51:38;14.20;;;9.90;;
58990;SDS011;44781;53.444;14.476;2023-11-19T12:54:05;13.20;;;10.20;;
58990;SDS011;44781;53.444;14.476;2023-11-19T12:56:35;14.70;;;9.60;;
58990;SDS011;44781;53.444;14.476;2023-11-19T12:59:27;16.90;;;11.00;;
58990;SDS011;44781;53.444;14.476;2023-11-19T13:01:55;14.90;;;10.60;;
58990;SDS011;44781;53.444;14.476;2023-11-19T13:04:30;13.10;;;9.30;;
58990;SDS011;44781;53.444;14.476;2023-11-19T13:06:57;18.80;;;13.20;;
58990;SDS011;44781;53.444;14.476;2023-11-19T13:09:26;15.30;;;10.10;;
58990;SDS011;44781;53.444;14.476;2023-11-19T13:12:33;15.40;;;10.80;;
58990;SDS011;44781;53.444;14.476;2023-11-19T13:15:02;15.60;;;9.70;;
58990;SDS011;44781;53.444;14.476;2023-11-19T13:17:29;14.80;;;9.80;;
58990;SDS011;44781;53.444;14.476;2023-11-19T13:19:57;14.80;;;9.30;;
58990;SDS011;44781;53.444;14.476;2023-11-19T13:22:23;15.20;;;10.90;;
58990;SDS011;44781;53.444;14.476;2023-11-19T13:24:53;19.80;;;14.30;;
58990;SDS011;44781;53.444;14.476;2023-11-19T13:27:27;16.90;;;12.80;;
58990;SDS011;44781;53.444;14.476;2023-11-19T13:29:54;16.00;;;11.00;;
58990;SDS011;44781;53.444;14.476;2023-11-19T13:32:21;16.30;;;10.80;;
58990;SDS011;44781;53.444;14.476;2023-11-19T13:34:51;18.70;;;11.20;;
58990;SDS011;44781;53.444;14.476;2023-11-19T13:37:18;17.30;;;12.10;;
58990;SDS011;44781;53.444;14.476;2023-11-19T13:39:48;17.70;;;11.30;;
58990;SDS011;44781;53.444;14.476;2023-11-19T13:42:57;18.30;;;13.90;;
58990;SDS011;44781;53.444;14.476;2023-11-19T13:45:26;16.80;;;11.50;;
58990;SDS011;44781;53.444;14.476;2023-11-19T13:47:57;19.40;;;12.20;;
58990;SDS011;44781;53.444;14.476;2023-11-19T13:50:32;16.40;;;12.20;;
58990;SDS011;44781;53.444;14.476;2023-11-19T13:53:02;17.20;;;13.40;;
58990;SDS011;44781;53.444;14.476;2023-11-19T13:55:32;15.30;;;12.10;;
58990;SDS011;44781;53.444;14.476;2023-11-19T13:58:02;20.30;;;14.20;;
58990;SDS011;44781;53.444;14.476;2023-11-19T14:00:30;21.40;;;14.40;;
58990;SDS011;44781;53.444;14.476;2023-11-19T14:02:57;20.60;;;15.80;;
58990;SDS011;44781;53.444;14.476;2023-11-19T14:05:27;21.90;;;16.60;;
58990;SDS011;44781;53.444;14.476;2023-11-19T14:08:00;19.90;;;15.50;;
58990;SDS011;44781;53.444;14.476;2023-11-19T14:10:28;18.60;;;13.80;;
58990;SDS011;44781;53.444;14.476;2023-11-19T14:13:02;16.60;;;12.70;;
58990;SDS011;44781;53.444;14.476;2023-11-19T14:15:39;17.30;;;13.20;;
58990;SDS011;44781;53.444;14.476;2023-11-19T14:18:09;16.40;;;11.60;;
58990;SDS011;44781;53.444;14.476;2023-11-19T14:20:36;17.60;;;12.60;;
58990;SDS011;44781;53.444;14.476;2023-11-19T14:23:08;21.00;;;14.60;;
58990;SDS011;44781;53.444;14.476;2023-11-19T14:25:35;22.90;;;17.00;;
58990;SDS011;44781;53.444;14.476;2023-11-19T14:28:03;27.20;;;19.80;;
58990;SDS011;44781;53.444;14.476;2023-11-19T14:30:30;30.00;;;22.40;;
58990;SDS011;44781;53.444;14.476;2023-11-19T14:33:00;31.50;;;21.90;;
58990;SDS011;44781;53.444;14.476;2023-11-19T14:35:28;35.00;;;24.60;;
58990;SDS011;44781;53.444;14.476;2023-11-19T14:37:56;27.70;;;21.60;;
58990;SDS011;44781;53.444;14.476;2023-11-19T14:40:24;26.00;;;21.40;;
58990;SDS011;44781;53.444;14.476;2023-11-19T14:42:53;24.90;;;19.50;;
58990;SDS011;44781;53.444;14.476;2023-11-19T14:45:21;23.00;;;19.30;;